Time;durP1;ratioP1;P1;durP2;ratioP2;P2;SDS_P1;SDS_P2;PMS_P1;PMS_P2;Temp;Humidity;BMP_temperature;BMP_pressure;BME280_temperature;BME280_humidity;BME280_pressure;Samples;Min_cycle;Max_cycle;Signal;HPM_P1;HPM_P2
2021/12/18 00:00:36;;;;;;;39.95;13.52;;;;;;;7.26;100.00;104050.22;5108095;27;20535;-46
2021/12/18 00:03:03;;;;;;;44.05;14.95;;;;;;;7.23;100.00;104052.13;5142429;27;20114;-45
2021/12/18 00:05:28;;;;;;;45.90;15.32;;;;;;;7.22;100.00;104048.59;5142578;27;20023;-46
2021/12/18 00:07:53;;;;;;;48.85;14.43;;;;;;;7.23;100.00;104052.13;5142764;27;20026;-47
2021/12/18 00:10:22;;;;;;;49.30;16.33;;;;;;;7.21;100.00;104052.22;5143449;27;20027;-47
2021/12/18 00:12:49;;;;;;;45.45;15.52;;;;;;;7.18;100.00;104041.69;5134799;27;20030;-48
2021/12/18 00:15:16;;;;;;;41.85;15.18;;;;;;;7.22;100.00;104045.94;5139974;27;20011;-47
2021/12/18 00:17:42;;;;;;;44.88;14.85;;;;;;;7.18;100.00;104036.38;5123738;27;20113;-43
2021/12/18 00:20:07;;;;;;;48.15;15.50;;;;;;;7.21;100.00;104041.56;5141730;27;20036;-47
2021/12/18 00:22:33;;;;;;;42.05;14.57;;;;;;;7.23;100.00;104044.16;5142586;27;20035;-44
2021/12/18 00:24:58;;;;;;;42.58;15.55;;;;;;;7.22;100.00;104039.78;5142708;27;20026;-44
2021/12/18 00:27:23;;;;;;;42.20;14.95;;;;;;;7.22;100.00;104040.63;5142953;27;20078;-44
2021/12/18 00:29:49;;;;;;;48.83;16.05;;;;;;;7.22;100.00;104031.78;5143160;27;20019;-47
2021/12/18 00:32:14;;;;;;;45.25;16.15;;;;;;;7.22;100.00;104031.78;5141935;27;20878;-46
2021/12/18 00:34:39;;;;;;;49.47;17.02;;;;;;;7.21;100.00;104027.38;5142669;27;20034;-46
2021/12/18 00:37:05;;;;;;;46.22;16.33;;;;;;;7.22;100.00;104026.47;5141482;27;20125;-45
2021/12/18 00:39:32;;;;;;;45.75;17.00;;;;;;;7.23;100.00;104029.09;5142402;27;20065;-47
2021/12/18 00:42:18;;;;;;;52.33;16.92;;;;;;;7.21;100.00;104017.66;5141952;27;20026;-46
2021/12/18 00:44:44;;;;;;;54.45;17.33;;;;;;;7.22;100.00;104018.50;5142208;27;20026;-47
2021/12/18 00:47:09;;;;;;;48.40;16.70;;;;;;;7.19;100.00;104014.16;5142105;27;20023;-45
2021/12/18 00:49:34;;;;;;;47.63;15.95;;;;;;;7.21;100.00;104014.09;5142647;27;20035;-45
2021/12/18 00:52:00;;;;;;;51.50;16.65;;;;;;;7.20;100.00;104018.56;5141373;27;20341;-46
2021/12/18 00:54:27;;;;;;;45.25;16.15;;;;;;;7.21;100.00;104014.09;5124704;27;20019;-45
2021/12/18 00:56:52;;;;;;;43.78;15.50;;;;;;;7.22;100.00;104015.84;5121003;27;20031;-47
2021/12/18 00:59:17;;;;;;;38.65;14.02;;;;;;;7.20;100.00;104005.28;5122130;27;20015;-46
2021/12/18 01:01:45;;;;;;;41.58;14.65;;;;;;;7.19;100.00;104002.66;5120652;27;20064;-45
2021/12/18 01:04:10;;;;;;;38.13;14.07;;;;;;;7.19;100.00;104008.00;5121551;27;20442;-46
2021/12/18 01:06:35;;;;;;;37.60;13.23;;;;;;;7.17;100.00;104002.72;5120377;27;20020;-49
2021/12/18 01:09:01;;;;;;;35.15;12.73;;;;;;;7.15;100.00;104001.94;5131473;27;20582;-45
2021/12/18 01:11:35;;;;;;;35.30;12.35;;;;;;;7.16;100.00;104003.69;5141815;27;20026;-46
2021/12/18 01:24:58;;;;;;;24.08;9.07;;;;;;;7.15;100.00;104003.72;5141835;27;20514;-46
2021/12/18 01:27:23;;;;;;;25.77;9.60;;;;;;;7.13;100.00;103998.47;5123214;27;20046;-44
2021/12/18 01:29:49;;;;;;;24.30;9.50;;;;;;;7.07;100.00;103993.38;5141852;27;20143;-47
2021/12/18 01:32:15;;;;;;;25.85;9.88;;;;;;;7.14;100.00;104004.66;5134159;27;20023;-46
2021/12/18 01:34:40;;;;;;;27.52;10.20;;;;;;;7.12;100.00;103998.53;5121476;27;20023;-44
2021/12/18 01:37:06;;;;;;;28.80;10.35;;;;;;;7.13;100.00;103997.59;5120513;27;20027;-45
2021/12/18 01:39:31;;;;;;;29.67;10.38;;;;;;;7.14;100.00;104002.84;5120827;27;20056;-46
2021/12/18 01:42:45;;;;;;;29.20;10.40;;;;;;;7.13;100.00;104009.09;5120040;27;20031;-44
2021/12/18 01:45:13;;;;;;;26.02;9.38;;;;;;;7.13;100.00;104003.78;5120827;27;20031;-48
2021/12/18 01:53:10;;;;;;;30.73;10.52;;;;;;;7.13;100.00;104025.06;5126127;27;20037;-45
2021/12/18 01:55:37;;;;;;;26.70;9.85;;;;;;;7.12;100.00;104025.97;5141782;27;20071;-45
2021/12/18 01:58:04;;;;;;;27.90;9.75;;;;;;;7.13;100.00;104033.03;5140848;27;20043;-44
2021/12/18 02:00:35;;;;;;;30.27;9.65;;;;;;;7.14;100.00;104039.19;5141255;27;20172;-46
2021/12/18 02:03:00;;;;;;;27.65;10.50;;;;;;;7.14;100.00;104029.44;5122100;27;20031;-47
2021/12/18 02:05:26;;;;;;;29.08;10.82;;;;;;;7.13;100.00;104030.38;5140483;27;20630;-44
2021/12/18 02:07:51;;;;;;;28.60;10.52;;;;;;;7.12;100.00;104020.66;5140891;27;20042;-46
2021/12/18 02:10:23;;;;;;;26.73;10.50;;;;;;;7.14;100.00;104028.56;5141020;27;20022;-48
2021/12/18 02:13:10;;;;;;;31.33;10.27;;;;;;;7.09;100.00;104031.41;5140317;27;20094;-46
2021/12/18 02:21:12;;;;;;;31.40;10.50;;;;;;;7.10;100.00;104027.81;5119397;27;20042;-47
2021/12/18 02:23:38;;;;;;;37.83;12.10;;;;;;;7.10;100.00;104023.38;5119450;27;20079;-44
2021/12/18 02:26:03;;;;;;;32.35;10.98;;;;;;;7.11;100.00;104026.88;5120023;27;20054;-45
2021/12/18 02:28:29;;;;;;;36.65;11.63;;;;;;;7.10;100.00;104012.72;5120352;27;20031;-44
2021/12/18 02:30:56;;;;;;;38.00;11.52;;;;;;;7.10;100.00;104017.19;5119686;27;20031;-47
2021/12/18 02:33:22;;;;;;;36.30;12.00;;;;;;;7.09;100.00;104011.03;5129899;27;20173;-45
2021/12/18 02:35:50;;;;;;;37.78;12.23;;;;;;;7.07;100.00;104002.22;5140294;27;20080;-47
2021/12/18 02:38:30;;;;;;;36.97;12.32;;;;;;;7.09;100.00;104005.72;5125697;27;20495;-46
2021/12/18 02:43:27;;;;;;;32.17;11.13;;;;;;;7.08;100.00;103998.66;5140458;27;20045;-46
2021/12/18 02:45:58;;;;;;;34.95;11.95;;;;;;;7.05;100.00;103993.44;5120433;27;20030;-49
2021/12/18 02:48:23;;;;;;;41.97;12.75;;;;;;;7.05;100.00;103987.28;5139717;27;20051;-46
2021/12/18 02:50:48;;;;;;;38.40;12.80;;;;;;;7.04;100.00;103986.41;5139331;27;20071;-49
2021/12/18 02:53:14;;;;;;;37.58;12.65;;;;;;;7.04;100.00;103982.88;5131892;27;20092;-48
2021/12/18 02:55:39;;;;;;;41.92;13.38;;;;;;;7.04;100.00;103983.75;5100443;27;20095;-47
2021/12/18 02:58:04;;;;;;;35.45;12.07;;;;;;;7.05;100.00;103980.16;5100260;27;20104;-45
2021/12/18 03:00:30;;;;;;;36.20;12.27;;;;;;;7.06;100.00;103984.56;5119516;27;20098;-46
2021/12/18 03:02:56;;;;;;;39.30;13.75;;;;;;;7.05;100.00;103976.66;5118436;27;20027;-45
2021/12/18 03:05:29;;;;;;;37.17;13.40;;;;;;;7.07;100.00;103972.13;5118333;27;20107;-46
2021/12/18 03:08:03;;;;;;;37.70;12.35;;;;;;;7.07;100.00;103980.09;5118712;27;20102;-45
2021/12/18 03:24:21;;;;;;;39.78;13.35;;;;;;;7.02;100.00;103968.78;5139721;27;20083;-48
2021/12/18 03:26:46;;;;;;;40.88;14.52;;;;;;;7.00;100.00;103965.34;5139716;27;20239;-45
2021/12/18 03:29:11;;;;;;;39.08;13.18;;;;;;;7.02;100.00;103977.63;5139685;27;20113;-44
2021/12/18 03:31:37;;;;;;;40.92;13.90;;;;;;;7.01;100.00;103977.66;5140137;27;20015;-45
2021/12/18 03:34:02;;;;;;;36.88;13.65;;;;;;;7.01;100.00;103973.25;5139418;27;20019;-47
2021/12/18 03:36:27;;;;;;;42.95;13.88;;;;;;;7.02;100.00;103966.13;5139407;27;20018;-45
2021/12/18 03:38:53;;;;;;;36.13;12.55;;;;;;;7.02;100.00;103974.97;5138454;27;20427;-45
2021/12/18 03:41:18;;;;;;;35.22;12.80;;;;;;;6.99;100.00;103984.84;5140416;27;20448;-45
2021/12/18 03:43:43;;;;;;;34.70;12.98;;;;;;;6.99;100.00;103974.22;5138981;27;20091;-45
2021/12/18 03:46:08;;;;;;;36.80;12.77;;;;;;;7.00;100.00;103976.81;5140591;27;20549;-44
2021/12/18 03:48:34;;;;;;;43.05;13.07;;;;;;;7.00;100.00;103979.47;5120596;27;20138;-45
2021/12/18 03:50:59;;;;;;;38.08;12.45;;;;;;;7.01;100.00;103980.34;5138588;27;20023;-47
2021/12/18 03:53:24;;;;;;;35.63;12.38;;;;;;;7.01;100.00;103970.59;5139499;27;20027;-45
2021/12/18 03:55:50;;;;;;;33.08;12.10;;;;;;;7.01;100.00;103978.56;5139947;27;20026;-42
2021/12/18 03:58:15;;;;;;;32.80;11.95;;;;;;;7.01;100.00;103977.66;5139190;27;20030;-46
2021/12/18 04:00:40;;;;;;;39.28;12.38;;;;;;;7.01;100.00;103977.66;5139136;27;20059;-45
2021/12/18 04:03:05;;;;;;;38.33;12.35;;;;;;;6.97;100.00;103971.63;5138415;27;20138;-45
2021/12/18 04:05:31;;;;;;;34.20;11.63;;;;;;;7.00;100.00;103971.50;5139223;27;20023;-46
2021/12/18 04:08:08;;;;;;;30.35;12.25;;;;;;;7.00;100.00;103973.31;5138902;27;20030;-47
2021/12/18 04:10:35;;;;;;;29.70;11.48;;;;;;;6.93;100.00;103962.06;5139803;27;20073;-45
2021/12/18 04:13:00;;;;;;;31.55;11.80;;;;;;;6.97;100.00;103971.63;5119905;27;20022;-45
2021/12/18 04:15:26;;;;;;;33.08;12.02;;;;;;;6.98;100.00;103967.19;5139930;27;20057;-46
2021/12/18 04:17:51;;;;;;;31.73;12.50;;;;;;;7.00;100.00;103974.16;5121345;27;20117;-43
2021/12/18 04:20:16;;;;;;;33.88;12.48;;;;;;;6.98;100.00;103977.81;5117526;28;20408;-45
2021/12/18 04:22:41;;;;;;;32.47;11.52;;;;;;;6.98;100.00;103972.50;5119220;27;20068;-47
2021/12/18 04:25:07;;;;;;;35.10;12.27;;;;;;;6.97;100.00;103973.41;5122071;27;20027;-46
2021/12/18 04:27:33;;;;;;;32.50;11.93;;;;;;;6.94;100.00;103973.53;5130114;27;20836;-44
2021/12/18 04:29:58;;;;;;;39.72;12.15;;;;;;;6.95;100.00;103973.47;5143157;27;20026;-47
2021/12/18 04:32:23;;;;;;;33.58;11.18;;;;;;;6.95;100.00;103976.13;5143169;27;20091;-48
2021/12/18 04:34:49;;;;;;;33.17;12.15;;;;;;;6.93;100.00;103970.03;5142717;27;20056;-46
2021/12/18 04:37:14;;;;;;;34.70;12.73;;;;;;;6.95;100.00;103978.78;5142391;27;20420;-45
2021/12/18 04:39:39;;;;;;;34.53;12.02;;;;;;;6.93;100.00;103970.03;5142649;27;20488;-48
2021/12/18 04:42:05;;;;;;;35.63;12.77;;;;;;;6.96;100.00;103979.66;5141384;27;20175;-48
2021/12/18 04:44:30;;;;;;;40.70;12.57;;;;;;;6.97;100.00;103978.72;5123979;27;20014;-44
2021/12/18 04:46:56;;;;;;;33.90;11.93;;;;;;;6.97;100.00;103984.91;5141714;27;20732;-45
2021/12/18 04:49:21;;;;;;;33.55;12.95;;;;;;;6.97;100.00;103987.56;5141623;27;20460;-44
2021/12/18 04:51:47;;;;;;;40.70;13.35;;;;;;;6.99;100.00;103999.03;5142324;27;20069;-45
2021/12/18 04:54:13;;;;;;;35.97;12.48;;;;;;;6.98;100.00;103996.41;5142422;27;20561;-44
2021/12/18 04:56:38;;;;;;;33.85;11.15;;;;;;;6.97;100.00;104000.84;5142207;27;20342;-49
2021/12/18 04:59:05;;;;;;;33.38;11.07;;;;;;;6.94;100.00;104011.59;5142226;27;20049;-47
2021/12/18 05:01:35;;;;;;;33.50;11.65;;;;;;;6.93;100.00;104006.38;5142547;27;20699;-48
2021/12/18 05:04:01;;;;;;;36.45;11.82;;;;;;;6.93;100.00;104006.38;5141989;27;20446;-47
2021/12/18 05:06:29;;;;;;;31.23;10.27;;;;;;;6.91;100.00;104009.94;5141393;27;20094;-47
2021/12/18 05:08:54;;;;;;;30.33;10.63;;;;;;;6.90;100.00;103999.38;5141873;27;20022;-46
2021/12/18 05:11:19;;;;;;;33.33;9.65;;;;;;;6.89;100.00;103992.31;5142651;27;20019;-45
2021/12/18 05:13:45;;;;;;;34.78;11.30;;;;;;;6.88;100.00;103999.41;5141746;27;20023;-47
2021/12/18 05:16:10;;;;;;;32.35;10.02;;;;;;;6.88;100.00;104004.72;5123308;27;20041;-46
2021/12/18 05:18:35;;;;;;;28.85;10.13;;;;;;;6.89;100.00;104003.81;5142097;27;20078;-46
2021/12/18 05:21:00;;;;;;;34.92;11.35;;;;;;;6.88;100.00;103995.91;5140879;27;20458;-49
2021/12/18 05:23:26;;;;;;;31.73;10.65;;;;;;;6.89;100.00;103994.97;5141874;27;20038;-50
2021/12/18 05:25:51;;;;;;;34.47;10.88;;;;;;;6.88;100.00;103994.09;5141989;27;20027;-48
2021/12/18 05:28:16;;;;;;;30.42;10.50;;;;;;;6.84;100.00;103994.28;5141414;27;20026;-44
2021/12/18 05:30:41;;;;;;;32.33;10.18;;;;;;;6.90;100.00;104010.00;5141096;27;20164;-49
2021/12/18 05:33:07;;;;;;;32.53;10.88;;;;;;;6.89;100.00;104000.28;5141165;27;20038;-44
2021/12/18 05:35:32;;;;;;;30.73;10.32;;;;;;;6.90;100.00;104010.00;5140003;27;20022;-46
2021/12/18 05:38:04;;;;;;;34.75;9.60;;;;;;;6.88;100.00;103994.09;5141663;27;20451;-45
2021/12/18 05:40:31;;;;;;;34.47;11.15;;;;;;;6.89;100.00;104008.25;5142082;27;20128;-44
2021/12/18 05:42:57;;;;;;;37.10;11.07;;;;;;;6.89;100.00;104002.94;5140680;27;20174;-45
2021/12/18 05:45:22;;;;;;;33.38;10.75;;;;;;;6.86;100.00;104001.28;5142191;27;20026;-48
2021/12/18 05:47:48;;;;;;;37.97;10.85;;;;;;;6.84;100.00;103999.59;5141219;27;20488;-47
2021/12/18 05:50:18;;;;;;;36.28;10.32;;;;;;;6.86;100.00;104003.06;5140098;27;20356;-48
2021/12/18 05:52:45;;;;;;;37.20;11.18;;;;;;;6.88;100.00;104003.88;5141013;27;20023;-46
2021/12/18 05:55:11;;;;;;;48.92;13.55;;;;;;;6.86;100.00;103995.09;5134348;27;20033;-48
2021/12/18 05:57:37;;;;;;;44.80;13.65;;;;;;;6.85;100.00;104002.19;5120305;27;20465;-46
2021/12/18 06:00:07;;;;;;;47.17;14.30;;;;;;;6.86;100.00;103998.63;5120552;27;20064;-46
2021/12/18 06:02:32;;;;;;;52.35;13.20;;;;;;;6.89;100.00;104000.28;5120139;27;20114;-44
2021/12/18 06:04:58;;;;;;;45.47;13.23;;;;;;;6.89;100.00;103994.97;5119017;27;20094;-45
2021/12/18 06:07:31;;;;;;;41.33;12.73;;;;;;;6.89;100.00;103997.63;5139974;27;20026;-49
2021/12/18 06:09:57;;;;;;;45.20;13.10;;;;;;;6.86;100.00;103990.66;5139970;27;20038;-46
2021/12/18 06:12:23;;;;;;;40.85;11.82;;;;;;;6.89;100.00;103998.50;5140965;27;20061;-47
2021/12/18 06:14:49;;;;;;;32.25;10.00;;;;;;;6.88;100.00;103987.94;5141106;27;20038;-44
2021/12/18 06:17:14;;;;;;;35.13;9.88;;;;;;;6.89;100.00;103990.53;5140745;27;20025;-49
2021/12/18 06:19:40;;;;;;;32.75;9.63;;;;;;;6.90;100.00;103986.06;5139790;27;20039;-45
2021/12/18 06:22:05;;;;;;;31.10;10.02;;;;;;;6.89;100.00;103987.88;5140626;27;20027;-43
2021/12/18 06:24:30;;;;;;;30.98;10.70;;;;;;;6.88;100.00;103985.28;5140928;27;20031;-44
2021/12/18 06:26:56;;;;;;;34.20;11.65;;;;;;;6.89;100.00;103981.69;5139640;27;20023;-46
2021/12/18 06:29:22;;;;;;;33.88;11.82;;;;;;;6.87;100.00;103984.41;5140988;27;20311;-44
2021/12/18 06:31:47;;;;;;;36.55;11.63;;;;;;;6.87;100.00;103992.38;5140404;27;20046;-48
2021/12/18 06:34:13;;;;;;;32.15;11.07;;;;;;;6.86;100.00;103985.34;5138715;27;20561;-46
2021/12/18 06:36:39;;;;;;;35.65;10.23;;;;;;;6.86;100.00;103989.78;5121974;27;20028;-46
2021/12/18 06:39:04;;;;;;;29.52;9.15;;;;;;;6.86;100.00;103987.13;5139469;27;20121;-48
2021/12/18 06:41:29;;;;;;;31.33;8.90;;;;;;;6.86;100.00;103985.34;5140299;27;20137;-46
2021/12/18 06:43:55;;;;;;;28.80;8.10;;;;;;;6.86;100.00;103988.00;5139519;27;20312;-45
2021/12/18 06:46:20;;;;;;;27.77;8.23;;;;;;;6.84;100.00;103981.00;5122391;27;20300;-47
2021/12/18 06:48:46;;;;;;;29.48;8.05;;;;;;;6.84;100.00;103987.19;5139786;27;20313;-44
2021/12/18 06:51:11;;;;;;;30.80;8.75;;;;;;;6.85;100.00;103980.94;5139871;27;20212;-46
2021/12/18 06:53:36;;;;;;;29.10;8.18;;;;;;;6.84;100.00;103981.00;5139847;27;20450;-46
2021/12/18 06:56:03;;;;;;;32.00;8.65;;;;;;;6.84;100.00;103986.31;5139958;27;20249;-46
2021/12/18 06:58:29;;;;;;;32.20;8.48;;;;;;;6.85;100.00;103991.56;5139956;27;20455;-45
2021/12/18 07:00:54;;;;;;;27.50;8.25;;;;;;;6.83;100.00;103979.28;5139949;27;20037;-49
2021/12/18 07:03:20;;;;;;;31.23;9.88;;;;;;;6.84;100.00;103981.88;5140440;27;20097;-46
2021/12/18 07:05:47;;;;;;;31.98;9.82;;;;;;;6.86;100.00;103987.13;5121059;27;20014;-47
2021/12/18 07:08:13;;;;;;;35.05;10.13;;;;;;;6.84;100.00;103986.31;5139801;27;20029;-45
2021/12/18 07:10:38;;;;;;;33.35;8.95;;;;;;;6.86;100.00;103989.78;5140538;27;20014;-45
2021/12/18 07:13:03;;;;;;;28.05;7.97;;;;;;;6.81;100.00;103982.00;5139213;27;20400;-44
2021/12/18 07:15:29;;;;;;;27.45;7.93;;;;;;;6.81;100.00;103975.81;5140388;27;20054;-46
2021/12/18 07:17:54;;;;;;;25.77;7.75;;;;;;;6.79;100.00;103983.84;5139200;27;20038;-46
2021/12/18 07:20:19;;;;;;;24.35;7.07;;;;;;;6.81;100.00;103994.41;5138908;27;20106;-48
2021/12/18 07:22:44;;;;;;;26.10;7.35;;;;;;;6.79;100.00;103988.28;5120546;27;20027;-47
2021/12/18 07:25:11;;;;;;;26.67;7.32;;;;;;;6.80;100.00;103987.34;5120875;27;20083;-45
2021/12/18 07:27:36;;;;;;;23.02;6.47;;;;;;;6.80;100.00;103995.31;5139397;27;20102;-47
2021/12/18 07:30:03;;;;;;;29.77;7.07;;;;;;;6.81;100.00;103994.41;5139443;27;20027;-46
2021/12/18 07:32:29;;;;;;;27.90;7.32;;;;;;;6.80;100.00;103990.88;5139045;27;20519;-45
2021/12/18 07:34:55;;;;;;;27.60;8.10;;;;;;;6.81;100.00;103991.75;5138367;27;20027;-45
2021/12/18 07:37:22;;;;;;;27.08;7.72;;;;;;;6.80;100.00;103997.97;5121330;27;20047;-44
2021/12/18 07:39:48;;;;;;;24.70;7.70;;;;;;;6.76;100.00;103989.28;5139573;27;20131;-45
2021/12/18 07:42:13;;;;;;;26.25;7.20;;;;;;;6.77;100.00;103988.34;5139027;27;20059;-45
2021/12/18 07:44:40;;;;;;;25.10;7.63;;;;;;;6.78;100.00;103995.38;5139302;27;20041;-45
2021/12/18 07:47:05;;;;;;;28.15;7.60;;;;;;;6.78;100.00;104000.69;5139206;27;20050;-46
2021/12/18 07:49:31;;;;;;;26.58;7.55;;;;;;;6.77;100.00;104000.75;5139231;27;20186;-45
2021/12/18 07:52:01;;;;;;;28.85;7.03;;;;;;;6.77;100.00;104008.72;5139174;27;20030;-46
2021/12/18 07:54:26;;;;;;;27.75;6.95;;;;;;;6.77;100.00;104011.38;5139704;27;20470;-45
2021/12/18 07:56:52;;;;;;;26.13;6.93;;;;;;;6.78;100.00;104006.00;5138986;27;20098;-46
2021/12/18 07:59:17;;;;;;;28.73;6.50;;;;;;;6.79;100.00;104005.09;5128536;27;20479;-45
2021/12/18 08:01:42;;;;;;;33.70;8.65;;;;;;;6.79;100.00;104004.22;5122820;27;20076;-44
2021/12/18 08:04:08;;;;;;;31.00;8.63;;;;;;;6.78;100.00;104005.16;5121475;27;20023;-45
2021/12/18 08:06:33;;;;;;;34.38;9.07;;;;;;;6.79;100.00;104001.56;5133371;27;20018;-44
2021/12/18 08:08:58;;;;;;;32.78;7.93;;;;;;;6.76;100.00;103997.25;5137752;27;20445;-44
2021/12/18 08:11:23;;;;;;;29.38;6.95;;;;;;;6.76;100.00;103999.91;5142705;27;20015;-44
2021/12/18 08:13:48;;;;;;;29.67;7.53;;;;;;;6.77;100.00;104001.63;5142242;27;20030;-44
2021/12/18 08:16:14;;;;;;;30.92;6.85;;;;;;;6.76;100.00;104005.22;5142336;27;20134;-45
2021/12/18 08:18:39;;;;;;;25.23;7.00;;;;;;;6.77;100.00;104001.63;5141426;27;20014;-43
2021/12/18 08:21:04;;;;;;;27.05;7.03;;;;;;;6.76;100.00;103999.91;5142025;27;20071;-47
2021/12/18 08:23:30;;;;;;;24.92;6.65;;;;;;;6.77;100.00;103998.97;5143633;27;20026;-44
2021/12/18 08:25:55;;;;;;;30.77;11.65;;;;;;;6.78;100.00;103999.84;5143685;27;20031;-47
2021/12/18 08:28:20;;;;;;;33.72;13.40;;;;;;;6.80;100.00;103996.19;5142444;27;20023;-45
2021/12/18 08:30:46;;;;;;;29.35;13.23;;;;;;;6.85;100.00;104001.31;5143102;27;20532;-48
2021/12/18 08:33:11;;;;;;;25.92;11.13;;;;;;;6.88;100.00;103996.75;5124605;27;20018;-47
2021/12/18 08:35:37;;;;;;;24.45;9.38;;;;;;;6.94;100.00;104000.09;5140968;27;20023;-47
2021/12/18 08:38:04;;;;;;;20.33;6.97;;;;;;;6.97;100.00;104002.66;5123538;27;20109;-49
2021/12/18 08:40:31;;;;;;;19.50;5.15;;;;;;;7.01;100.00;103996.28;5143025;27;20031;-46
2021/12/18 08:42:56;;;;;;;17.83;5.68;;;;;;;7.04;100.00;103996.16;5141578;27;20058;-45
2021/12/18 08:45:22;;;;;;;22.85;4.82;;;;;;;7.04;100.00;103993.50;5143205;27;20119;-47
2021/12/18 08:47:48;;;;;;;18.23;5.13;;;;;;;7.02;100.00;103998.88;5142731;27;20046;-46
2021/12/18 08:50:18;;;;;;;17.63;5.07;;;;;;;7.01;100.00;104002.47;5140975;27;20468;-47
2021/12/18 08:52:45;;;;;;;21.55;5.93;;;;;;;7.06;100.00;104002.28;5136130;27;20494;-48
2021/12/18 08:55:11;;;;;;;22.92;5.80;;;;;;;7.05;100.00;104008.53;5122324;27;20037;-46
2021/12/18 08:57:36;;;;;;;20.67;5.28;;;;;;;7.04;100.00;104001.47;5141507;27;20029;-46
2021/12/18 09:00:04;;;;;;;25.17;6.15;;;;;;;7.02;100.00;104006.84;5122924;27;20026;-44
2021/12/18 09:02:30;;;;;;;18.17;5.15;;;;;;;7.01;100.00;104009.56;5141993;27;20048;-47
2021/12/18 09:04:55;;;;;;;20.02;5.82;;;;;;;6.96;100.00;104006.22;5140640;27;20089;-46
2021/12/18 09:07:22;;;;;;;18.23;5.65;;;;;;;6.90;100.00;103994.03;5139329;27;20037;-45
2021/12/18 09:09:47;;;;;;;20.17;5.30;;;;;;;6.84;100.00;103996.94;5141661;27;20503;-44
2021/12/18 09:12:12;;;;;;;18.73;4.95;;;;;;;6.84;100.00;104000.47;5140581;27;20109;-45
2021/12/18 09:14:39;;;;;;;19.80;5.25;;;;;;;6.82;100.00;103999.66;5141938;27;20218;-52
2021/12/18 09:17:05;;;;;;;19.23;5.32;;;;;;;6.82;100.00;103999.66;5141370;27;20443;-49
2021/12/18 09:19:30;;;;;;;18.23;4.80;;;;;;;6.85;100.00;104003.97;5141164;27;20019;-46
2021/12/18 09:21:56;;;;;;;20.48;5.25;;;;;;;6.86;100.00;104003.06;5139725;27;20027;-45
2021/12/18 09:24:21;;;;;;;15.95;4.55;;;;;;;6.87;100.00;104005.69;5141046;27;20406;-45
2021/12/18 09:26:47;;;;;;;13.48;3.85;;;;;;;6.86;100.00;104006.59;5141575;27;20426;-45
2021/12/18 09:29:12;;;;;;;14.25;4.18;;;;;;;6.86;100.00;104005.72;5141240;27;20407;-45
2021/12/18 09:31:38;;;;;;;16.48;3.83;;;;;;;6.89;100.00;104005.59;5141165;27;20479;-46
2021/12/18 09:34:03;;;;;;;15.27;4.00;;;;;;;6.92;100.00;104008.13;5119494;27;20090;-45
2021/12/18 09:36:28;;;;;;;17.95;5.30;;;;;;;6.90;100.00;103994.03;5141895;27;20496;-48
2021/12/18 09:38:54;;;;;;;14.13;4.72;;;;;;;6.96;100.00;104004.44;5139900;27;20203;-48
2021/12/18 09:41:19;;;;;;;14.38;4.85;;;;;;;6.93;100.00;103998.41;5141450;27;20026;-45
2021/12/18 09:43:44;;;;;;;12.27;4.20;;;;;;;6.99;100.00;104001.69;5140380;27;20034;-46
2021/12/18 09:46:12;;;;;;;14.50;5.15;;;;;;;7.02;100.00;104008.66;5122052;27;20039;-46
2021/12/18 09:48:40;;;;;;;13.45;3.83;;;;;;;7.03;100.00;104005.94;5136159;27;20035;-46
2021/12/18 09:51:11;;;;;;;9.30;3.15;;;;;;;7.03;100.00;103997.97;5133969;27;20019;-46
2021/12/18 09:53:40;;;;;;;11.15;3.17;;;;;;;6.99;100.00;103991.06;5139655;27;20023;-47
2021/12/18 09:56:06;;;;;;;10.00;3.35;;;;;;;7.06;100.00;103996.97;5140165;27;20122;-50
2021/12/18 09:58:31;;;;;;;8.32;3.20;;;;;;;7.12;100.00;103995.88;5140435;27;20121;-50
2021/12/18 10:00:57;;;;;;;8.20;3.10;;;;;;;7.12;100.00;103991.41;5139788;27;20554;-45
2021/12/18 10:03:44;;;;;;;10.77;2.90;;;;;;;7.18;100.00;103999.16;5140532;27;20340;-49
2021/12/18 10:06:34;;;;;;;13.07;3.95;;;;;;;7.22;100.00;103998.09;5141226;27;20024;-48
2021/12/18 10:08:59;;;;;;;11.10;3.72;;;;;;;7.21;100.00;103990.19;5139740;27;20109;-49
2021/12/18 10:11:25;;;;;;;11.18;3.83;;;;;;;7.22;100.00;103986.59;5141103;27;20109;-47
2021/12/18 10:13:57;;;;;;;8.50;3.10;;;;;;;7.27;100.00;103984.63;5140731;27;20038;-46
2021/12/18 10:16:26;;;;;;;9.48;3.60;;;;;;;7.29;100.00;103985.44;5141445;27;20202;-48
2021/12/18 10:18:53;;;;;;;10.88;3.70;;;;;;;7.33;100.00;103983.50;5138709;27;20105;-49
2021/12/18 10:21:21;;;;;;;11.70;4.25;;;;;;;7.35;100.00;103987.84;5140153;27;20345;-46
2021/12/18 10:23:48;;;;;;;12.27;4.72;;;;;;;7.35;100.00;103982.53;5140426;27;20038;-47
2021/12/18 10:26:43;;;;;;;18.83;5.55;;;;;;;7.32;100.00;103982.66;5141691;27;20118;-44
2021/12/18 10:29:30;;;;;;;15.38;4.43;;;;;;;7.21;100.00;103976.88;5140381;27;20029;-46
2021/12/18 10:32:02;;;;;;;17.80;4.50;;;;;;;7.08;100.00;103974.72;5140686;27;20041;-46
2021/12/18 10:34:27;;;;;;;12.40;4.50;;;;;;;7.02;100.00;103966.13;5125942;27;20109;-44
2021/12/18 10:37:13;;;;;;;14.52;4.85;;;;;;;7.05;100.00;103974.00;5101144;27;20051;-49
2021/12/18 10:39:45;;;;;;;12.35;4.35;;;;;;;7.01;100.00;103970.59;5119001;27;20542;-48
2021/12/18 10:42:34;;;;;;;13.25;4.57;;;;;;;6.98;100.00;103977.81;5119092;27;20366;-47
2021/12/18 10:45:05;;;;;;;12.35;4.47;;;;;;;6.88;100.00;103979.97;5105914;27;20563;-44
2021/12/18 10:47:45;;;;;;;12.45;4.57;;;;;;;6.85;100.00;103966.78;5119529;27;20046;-44
2021/12/18 10:50:27;;;;;;;12.65;4.40;;;;;;;6.80;100.00;103971.41;5118506;27;20400;-45
2021/12/18 10:52:59;;;;;;;13.48;5.20;;;;;;;6.78;100.00;103966.16;5118789;27;20038;-47
2021/12/18 10:55:41;;;;;;;14.23;5.57;;;;;;;6.81;100.00;103973.16;5119498;27;20038;-45
2021/12/18 10:58:11;;;;;;;13.77;4.60;;;;;;;6.80;100.00;103969.63;5118526;27;20638;-45
2021/12/18 11:00:42;;;;;;;9.43;4.07;;;;;;;6.78;100.00;103973.28;5100482;27;20061;-45
2021/12/18 11:03:18;;;;;;;10.77;4.50;;;;;;;6.68;100.00;103967.44;5118455;27;20034;-47
2021/12/18 11:05:43;;;;;;;16.33;4.78;;;;;;;6.68;100.00;103970.94;5123683;27;20432;-49
2021/12/18 11:08:11;;;;;;;15.05;5.22;;;;;;;6.63;100.00;103969.41;5120875;27;20022;-48
2021/12/18 11:10:43;;;;;;;14.20;5.60;;;;;;;6.63;100.00;103964.94;5139694;27;20101;-46
2021/12/18 11:15:54;;;;;;;13.15;5.53;;;;;;;6.72;100.00;103967.28;5140068;27;20041;-46
2021/12/18 11:18:19;;;;;;;14.60;6.28;;;;;;;6.79;100.00;103969.69;5139365;27;20358;-50
2021/12/18 11:20:51;;;;;;;12.90;5.72;;;;;;;6.85;100.00;103965.00;5140256;27;20052;-45
2021/12/18 11:23:31;;;;;;;13.60;6.30;;;;;;;6.89;100.00;103971.94;5138900;27;20045;-45
2021/12/18 11:25:58;;;;;;;13.18;5.68;;;;;;;6.94;100.00;103961.09;5136986;27;20031;-47
2021/12/18 11:28:26;;;;;;;14.05;5.78;;;;;;;6.95;100.00;103964.66;5139039;27;20049;-46
2021/12/18 11:30:52;;;;;;;15.43;5.57;;;;;;;6.93;100.00;103966.50;5138488;27;20044;-50
2021/12/18 11:33:18;;;;;;;32.50;5.68;;;;;;;6.84;100.00;103955.31;5140495;27;20747;-47
2021/12/18 11:35:44;;;;;;;20.35;5.68;;;;;;;6.78;100.00;103960.00;5142434;27;20475;-46
2021/12/18 11:38:12;;;;;;;12.32;5.43;;;;;;;6.71;100.00;103965.53;5142814;27;20595;-47
2021/12/18 11:40:39;;;;;;;14.00;5.93;;;;;;;6.68;100.00;103954.16;5143569;27;20454;-45
2021/12/18 11:43:27;;;;;;;18.23;5.93;;;;;;;6.72;100.00;103961.06;5123943;27;20031;-44
2021/12/18 11:45:52;;;;;;;15.05;5.70;;;;;;;6.77;100.00;103960.91;5142368;27;20053;-46
2021/12/18 11:48:17;;;;;;;11.30;4.93;;;;;;;6.79;100.00;103956.38;5142260;27;20023;-45
2021/12/18 11:50:42;;;;;;;8.75;4.40;;;;;;;6.78;100.00;103954.69;5143061;27;20083;-47
2021/12/18 11:53:20;;;;;;;9.10;4.22;;;;;;;6.75;100.00;103950.34;5142352;27;20029;-45
2021/12/18 11:55:51;;;;;;;7.07;3.67;;;;;;;6.69;100.00;103951.44;5143235;27;20414;-45